createdAt,value
2023-02-23T00:02:21.434Z,5.38
2023-02-23T00:04:50.171Z,4.28
2023-02-23T00:07:21.021Z,5.90
2023-02-23T00:09:49.500Z,7.07
2023-02-23T00:12:20.956Z,7.20
2023-02-23T00:14:49.223Z,8.45
2023-02-23T00:17:20.052Z,7.13
2023-02-23T00:19:49.607Z,7.82
2023-02-23T00:22:18.580Z,7.88
2023-02-23T00:24:47.982Z,6.50
2023-02-23T00:27:20.509Z,9.07
2023-02-23T00:29:51.217Z,8.63
2023-02-23T00:32:20.935Z,10.85
2023-02-23T00:34:50.612Z,8.73
2023-02-23T00:37:19.599Z,8.80
2023-02-23T00:39:47.963Z,8.68
2023-02-23T00:42:16.272Z,9.07
2023-02-23T00:44:44.578Z,7.78
2023-02-23T00:47:14.309Z,7.75
2023-02-23T00:49:45.145Z,9.23
2023-02-23T00:52:14.916Z,7.22
2023-02-23T00:54:43.555Z,9.07
2023-02-23T00:57:12.014Z,8.10
2023-02-23T00:59:40.419Z,9.85
2023-02-23T01:02:08.935Z,7.00
2023-02-23T01:04:38.947Z,7.55
2023-02-23T01:07:07.430Z,7.40
2023-02-23T01:09:35.712Z,10.68
2023-02-23T01:12:07.687Z,8.80
2023-02-23T01:14:37.838Z,8.65
2023-02-23T01:17:06.346Z,7.90
2023-02-23T01:19:35.040Z,9.65
2023-02-23T01:22:04.802Z,7.72
2023-02-23T01:24:33.126Z,9.25
2023-02-23T01:27:01.487Z,9.20
2023-02-23T01:29:29.835Z,7.57
2023-02-23T01:31:58.192Z,8.30
2023-02-23T01:34:27.145Z,9.15
2023-02-23T01:36:55.487Z,7.78
2023-02-23T01:39:25.284Z,7.85
2023-02-23T01:41:54.545Z,7.05
2023-02-23T01:44:59.759Z,8.25
2023-02-23T01:47:28.126Z,7.70
2023-02-23T01:49:56.642Z,7.97
2023-02-23T01:52:25.271Z,7.07
2023-02-23T01:54:57.196Z,11.23
2023-02-23T01:57:27.186Z,8.57
2023-02-23T01:59:56.458Z,8.15
2023-02-23T02:02:33.976Z,9.90
2023-02-23T02:05:05.135Z,12.93
2023-02-23T02:07:36.449Z,9.93
2023-02-23T02:10:24.624Z,11.45
2023-02-23T02:12:56.828Z,10.35
2023-02-23T02:15:30.140Z,10.68
2023-02-23T02:18:09.455Z,10.63
2023-02-23T02:21:06.361Z,11.30
2023-02-23T02:24:03.072Z,9.70
2023-02-23T02:26:46.437Z,9.30
2023-02-23T02:29:47.918Z,9.55
2023-02-23T02:32:55.499Z,10.00
2023-02-23T02:36:07.905Z,14.50
2023-02-23T02:38:51.220Z,13.93
2023-02-23T02:41:28.160Z,10.75
2023-02-23T02:44:02.154Z,10.57
2023-02-23T02:46:36.335Z,10.85
2023-02-23T02:49:09.431Z,11.38
2023-02-23T02:51:45.527Z,13.57
2023-02-23T02:54:25.310Z,13.02
2023-02-23T02:56:57.814Z,13.25
2023-02-23T02:59:43.956Z,10.45
2023-02-23T03:02:35.058Z,12.65
2023-02-23T03:05:20.914Z,11.20
2023-02-23T03:08:17.319Z,10.45
2023-02-23T03:11:10.844Z,9.57
2023-02-23T03:14:08.285Z,7.38
2023-02-23T03:17:01.922Z,9.68
2023-02-23T03:19:50.690Z,10.25
2023-02-23T03:22:42.121Z,12.10
2023-02-23T03:25:33.298Z,10.50
2023-02-23T03:28:30.023Z,11.35
2023-02-23T03:31:24.530Z,9.75
2023-02-23T03:34:15.027Z,11.45
2023-02-23T03:37:06.951Z,11.43
2023-02-23T03:39:56.499Z,10.77
2023-02-23T03:42:47.216Z,13.50
2023-02-23T03:45:38.324Z,9.45
2023-02-23T03:48:27.862Z,12.07
2023-02-23T03:51:16.035Z,10.63
2023-02-23T03:54:09.589Z,12.00
2023-02-23T03:57:00.701Z,10.70
2023-02-23T03:59:51.380Z,10.40
2023-02-23T04:02:41.459Z,9.73
2023-02-23T04:05:31.166Z,8.90
2023-02-23T04:08:20.245Z,9.38
2023-02-23T04:11:10.751Z,10.73
2023-02-23T04:13:40.648Z,10.68
2023-02-23T04:16:09.537Z,7.88
2023-02-23T04:18:41.283Z,7.65
2023-02-23T04:21:09.631Z,12.70
2023-02-23T04:23:40.960Z,9.93
2023-02-23T04:26:09.331Z,9.52
2023-02-23T04:28:37.591Z,8.40
2023-02-23T04:31:06.473Z,10.63
2023-02-23T04:33:34.777Z,8.63
2023-02-23T04:36:04.642Z,9.23
2023-02-23T04:38:32.938Z,9.25
2023-02-23T04:41:01.233Z,10.50
2023-02-23T04:43:29.644Z,8.75
2023-02-23T04:45:58.124Z,11.60
2023-02-23T04:48:26.930Z,10.45
2023-02-23T04:50:55.435Z,15.82
2023-02-23T04:53:27.297Z,13.70
2023-02-23T04:55:55.781Z,13.25
2023-02-23T04:58:24.455Z,12.88
2023-02-23T05:00:52.731Z,16.23
2023-02-23T05:03:21.107Z,12.27
2023-02-23T05:05:49.478Z,12.90
2023-02-23T05:08:17.786Z,10.70
2023-02-23T05:10:49.388Z,14.20
2023-02-23T05:13:17.653Z,10.73
2023-02-23T05:15:46.055Z,10.15
2023-02-23T05:18:14.461Z,12.07
2023-02-23T05:20:45.348Z,12.20
2023-02-23T05:23:13.777Z,11.75
2023-02-23T05:25:42.101Z,11.43
2023-02-23T05:28:11.949Z,13.05
2023-02-23T05:30:40.371Z,12.60
2023-02-23T05:33:09.120Z,11.88
2023-02-23T05:35:40.633Z,13.85
2023-02-23T05:38:09.030Z,11.98
2023-02-23T05:40:38.326Z,11.63
2023-02-23T05:43:06.635Z,13.63
2023-02-23T05:45:36.503Z,13.95
2023-02-23T05:48:04.813Z,14.60
2023-02-23T05:50:33.497Z,15.77
2023-02-23T05:53:01.774Z,14.48
2023-02-23T05:55:30.073Z,13.27
2023-02-23T05:57:58.704Z,13.90
2023-02-23T06:00:27.144Z,13.57
2023-02-23T06:02:56.933Z,11.52
2023-02-23T06:05:25.279Z,16.73
2023-02-23T06:07:54.062Z,13.25
2023-02-23T06:10:22.460Z,17.40
2023-02-23T06:12:50.854Z,9.88
2023-02-23T06:15:19.435Z,11.07
2023-02-23T06:17:47.742Z,9.73
2023-02-23T06:20:17.631Z,12.13
2023-02-23T06:22:46.374Z,11.40
2023-02-23T06:25:15.248Z,9.70
2023-02-23T06:27:45.610Z,9.13
2023-02-23T06:30:14.501Z,12.15
2023-02-23T06:32:43.492Z,10.85
2023-02-23T06:35:12.307Z,11.25
2023-02-23T06:37:42.252Z,10.82
2023-02-23T06:40:11.762Z,10.73
2023-02-23T06:42:40.149Z,10.57
2023-02-23T06:45:09.311Z,11.50
2023-02-23T06:47:37.883Z,13.43
2023-02-23T06:50:07.228Z,13.00
2023-02-23T06:52:35.664Z,12.02
2023-02-23T06:55:06.082Z,11.60
2023-02-23T06:57:34.468Z,15.25
2023-02-23T07:00:03.261Z,14.48
2023-02-23T07:02:31.520Z,14.07
2023-02-23T07:05:00.363Z,11.20
2023-02-23T07:07:28.735Z,11.23
2023-02-23T07:09:57.059Z,14.25
2023-02-23T07:12:27.610Z,13.30
2023-02-23T07:14:56.574Z,14.77
2023-02-23T07:17:25.082Z,15.13
2023-02-23T07:19:53.382Z,13.63
2023-02-23T07:22:22.427Z,16.02
2023-02-23T07:24:50.917Z,15.73
2023-02-23T07:27:19.888Z,14.18
2023-02-23T07:29:49.669Z,26.92
2023-02-23T07:32:18.081Z,29.20
2023-02-23T07:34:48.059Z,29.30
2023-02-23T07:37:17.185Z,21.90
2023-02-23T07:39:45.797Z,18.10
2023-02-23T07:42:14.399Z,19.35
2023-02-23T07:44:42.778Z,23.17
2023-02-23T07:47:12.943Z,19.08
2023-02-23T07:49:41.258Z,17.30
2023-02-23T07:52:09.505Z,16.50
2023-02-23T07:54:37.817Z,17.10
2023-02-23T07:57:06.199Z,21.45
2023-02-23T07:59:34.607Z,19.77
2023-02-23T08:02:03.063Z,18.25
2023-02-23T08:04:35.527Z,17.08
2023-02-23T08:07:04.787Z,21.60
2023-02-23T08:09:35.281Z,16.95
2023-02-23T08:12:03.871Z,19.15
2023-02-23T08:14:32.151Z,18.27
2023-02-23T08:17:01.844Z,16.42
2023-02-23T08:19:30.610Z,18.85
2023-02-23T08:22:00.629Z,18.30
2023-02-23T08:24:29.931Z,17.75
2023-02-23T08:26:58.373Z,19.20
2023-02-23T08:29:26.742Z,21.33
2023-02-23T08:31:56.357Z,24.30
2023-02-23T08:34:25.280Z,19.67
2023-02-23T08:36:54.216Z,21.13
2023-02-23T08:39:24.293Z,17.48
2023-02-23T08:41:52.799Z,17.95
2023-02-23T08:44:21.094Z,17.92
2023-02-23T08:46:49.377Z,20.25
2023-02-23T08:49:17.811Z,18.48
2023-02-23T08:51:48.110Z,21.02
2023-02-23T08:54:17.410Z,15.90
2023-02-23T08:56:47.262Z,17.05
2023-02-23T08:59:16.073Z,15.52
2023-02-23T09:01:46.053Z,16.50
2023-02-23T09:04:14.466Z,19.08
2023-02-23T09:06:42.916Z,19.05
2023-02-23T09:09:11.437Z,19.60
2023-02-23T09:11:40.004Z,19.20
2023-02-23T09:14:09.983Z,19.70
2023-02-23T09:16:38.527Z,19.73
2023-02-23T09:19:08.466Z,17.95
2023-02-23T09:21:37.899Z,15.75
2023-02-23T09:24:06.652Z,19.90
2023-02-23T09:26:35.917Z,17.58
2023-02-23T09:29:04.349Z,18.15
2023-02-23T09:31:34.742Z,18.23
2023-02-23T09:34:03.222Z,17.08
2023-02-23T09:36:32.550Z,20.35
2023-02-23T09:39:01.599Z,19.50
2023-02-23T09:41:52.410Z,17.77
2023-02-23T09:44:37.388Z,19.17
2023-02-23T09:47:19.068Z,19.85
2023-02-23T09:49:49.723Z,19.30
2023-02-23T09:52:21.638Z,21.08
2023-02-23T09:54:50.359Z,22.63
2023-02-23T09:57:22.771Z,19.35
2023-02-23T09:59:51.256Z,21.33
2023-02-23T10:02:31.228Z,23.27
2023-02-23T10:05:04.136Z,20.20
2023-02-23T10:07:43.622Z,22.38
2023-02-23T10:10:26.435Z,20.10
2023-02-23T10:13:05.463Z,19.30
2023-02-23T10:15:41.434Z,18.67
2023-02-23T10:18:27.023Z,19.85
2023-02-23T10:21:06.782Z,20.80
2023-02-23T10:23:40.065Z,18.70
2023-02-23T10:26:09.481Z,20.00
2023-02-23T10:28:39.254Z,23.77
2023-02-23T10:31:26.614Z,22.60
2023-02-23T10:34:00.094Z,25.60
2023-02-23T10:36:36.288Z,20.65
2023-02-23T10:39:08.220Z,19.95
2023-02-23T10:41:38.456Z,20.50
2023-02-23T10:44:16.958Z,24.85
2023-02-23T10:46:47.728Z,20.42
2023-02-23T10:49:22.673Z,20.20
2023-02-23T10:51:53.192Z,22.15
2023-02-23T10:54:44.867Z,17.42
2023-02-23T10:57:20.603Z,22.50
2023-02-23T11:00:20.480Z,22.90
2023-02-23T11:02:50.626Z,24.95
2023-02-23T11:05:46.270Z,21.13
2023-02-23T11:08:28.483Z,21.50
2023-02-23T11:11:30.383Z,22.70
2023-02-23T11:13:59.714Z,21.23
2023-02-23T11:16:32.449Z,25.98
2023-02-23T11:19:03.448Z,21.73
2023-02-23T11:21:35.022Z,19.63
2023-02-23T11:24:20.088Z,20.92
2023-02-23T11:26:51.818Z,21.65
2023-02-23T11:29:28.505Z,23.85
2023-02-23T11:31:59.789Z,23.23
2023-02-23T11:34:31.535Z,23.80
2023-02-23T11:37:04.092Z,21.60
2023-02-23T11:39:33.121Z,24.70
2023-02-23T11:42:19.453Z,23.58
2023-02-23T11:44:53.186Z,26.77
2023-02-23T11:49:52.608Z,27.70
2023-02-23T11:52:26.202Z,26.50
2023-02-23T11:54:57.952Z,30.27
2023-02-23T11:57:29.501Z,25.77
2023-02-23T11:59:59.043Z,25.52
2023-02-23T12:02:29.251Z,24.50
2023-02-23T12:05:08.505Z,27.02
2023-02-23T12:07:46.544Z,28.25
2023-02-23T12:10:22.315Z,24.58
2023-02-23T12:13:02.104Z,24.77
2023-02-23T12:15:37.173Z,26.27
2023-02-23T12:18:14.307Z,24.70
2023-02-23T12:20:45.713Z,26.40
2023-02-23T12:23:20.642Z,25.52
2023-02-23T12:25:54.038Z,28.13
2023-02-23T12:28:29.543Z,24.85
2023-02-23T12:31:02.234Z,25.63
2023-02-23T12:33:35.533Z,26.50
2023-02-23T12:36:13.554Z,21.98
2023-02-23T12:38:52.238Z,26.33
2023-02-23T12:41:33.779Z,24.60
2023-02-23T12:44:15.459Z,24.15
2023-02-23T12:46:49.160Z,22.08
2023-02-23T12:51:55.148Z,20.63
2023-02-23T12:54:26.084Z,19.08
2023-02-23T12:57:09.672Z,19.67
2023-02-23T13:00:31.306Z,21.00
2023-02-23T13:03:24.891Z,18.67
2023-02-23T13:06:02.051Z,19.00
2023-02-23T13:08:39.779Z,18.70
2023-02-23T13:11:18.539Z,23.85
2023-02-23T13:13:56.149Z,19.80
2023-02-23T13:16:32.350Z,21.15
2023-02-23T13:19:12.101Z,20.85
2023-02-23T13:21:46.059Z,19.15
2023-02-23T13:24:20.733Z,19.90
2023-02-23T13:27:01.308Z,20.00
2023-02-23T13:29:39.190Z,19.00
2023-02-23T13:32:15.641Z,19.50
2023-02-23T13:34:47.684Z,20.10
2023-02-23T13:37:20.645Z,19.58
2023-02-23T13:40:00.163Z,18.63
2023-02-23T13:42:42.609Z,14.90
2023-02-23T13:45:33.452Z,17.73
2023-02-23T13:48:08.188Z,17.17
2023-02-23T13:50:46.811Z,12.65
2023-02-23T13:53:34.144Z,13.45
2023-02-23T13:56:07.170Z,11.15
2023-02-23T13:58:38.190Z,11.82
2023-02-23T14:01:11.826Z,10.00
2023-02-23T14:06:19.416Z,10.23
2023-02-23T14:08:55.045Z,9.43
2023-02-23T14:11:36.770Z,7.80
2023-02-23T14:14:08.145Z,8.05
2023-02-23T14:16:37.399Z,7.70
2023-02-23T14:19:13.967Z,6.40
2023-02-23T14:21:52.538Z,6.65
2023-02-23T14:24:24.302Z,6.65
2023-02-23T14:27:40.006Z,6.30
2023-02-23T14:30:25.574Z,6.45
2023-02-23T14:32:55.321Z,5.53
2023-02-23T14:35:46.314Z,5.93
2023-02-23T14:38:38.783Z,5.97
2023-02-23T14:41:14.423Z,5.88
2023-02-23T14:43:47.358Z,7.15
2023-02-23T14:46:21.877Z,7.38
2023-02-23T14:49:08.108Z,7.68
2023-02-23T14:51:42.465Z,5.07
2023-02-23T14:54:24.448Z,4.47
2023-02-23T14:56:56.889Z,4.68
2023-02-23T14:59:28.555Z,4.32
2023-02-23T15:02:02.048Z,4.22
2023-02-23T15:04:31.763Z,4.97
2023-02-23T15:07:03.774Z,4.70
2023-02-23T15:09:36.527Z,4.78
2023-02-23T15:12:15.601Z,5.25
2023-02-23T15:14:44.744Z,4.68
2023-02-23T15:17:20.960Z,5.95
2023-02-23T15:19:56.140Z,5.45
2023-02-23T15:22:28.956Z,5.68
2023-02-23T15:24:59.408Z,6.30
2023-02-23T15:27:38.414Z,5.90
2023-02-23T15:30:27.737Z,5.60
2023-02-23T15:33:06.128Z,6.78
2023-02-23T15:35:42.457Z,5.45
2023-02-23T15:38:17.931Z,6.45
2023-02-23T15:40:47.494Z,6.47
2023-02-23T15:43:16.094Z,6.47
2023-02-23T15:45:49.901Z,5.85
2023-02-23T15:48:24.907Z,6.38
2023-02-23T15:50:57.705Z,6.85
2023-02-23T15:53:30.536Z,7.25
2023-02-23T15:56:04.886Z,6.30
2023-02-23T15:58:44.566Z,6.65
2023-02-23T16:01:24.952Z,5.72
2023-02-23T16:04:01.708Z,7.60
2023-02-23T16:06:37.189Z,5.78
2023-02-23T16:09:21.047Z,6.50
2023-02-23T16:14:20.941Z,6.63
2023-02-23T16:17:01.333Z,6.68
2023-02-23T16:19:41.742Z,6.82
2023-02-23T16:22:21.838Z,5.82
2023-02-23T16:24:59.721Z,6.45
2023-02-23T16:27:29.890Z,7.57
2023-02-23T16:30:01.686Z,5.95
2023-02-23T16:32:46.377Z,8.20
2023-02-23T16:35:21.750Z,6.88
2023-02-23T16:38:13.138Z,10.35
2023-02-23T16:40:41.653Z,6.18
2023-02-23T16:43:11.095Z,5.15
2023-02-23T16:45:40.837Z,4.90
2023-02-23T16:48:14.568Z,5.60
2023-02-23T16:53:14.786Z,6.07
2023-02-23T16:55:49.927Z,5.20
2023-02-23T16:58:21.126Z,6.68
2023-02-23T17:00:49.488Z,3.88
2023-02-23T17:03:21.960Z,6.80
2023-02-23T17:05:52.727Z,6.35
2023-02-23T17:08:21.133Z,6.20
2023-02-23T17:10:52.969Z,5.45
2023-02-23T17:13:22.900Z,2.85
2023-02-23T17:15:53.908Z,6.95
2023-02-23T17:20:55.911Z,7.00
2023-02-23T17:23:27.133Z,6.28
2023-02-23T17:25:56.104Z,5.28
2023-02-23T17:28:24.945Z,2.92
2023-02-23T17:30:54.324Z,5.00
2023-02-23T17:33:23.328Z,7.88
2023-02-23T17:35:51.615Z,6.82
2023-02-23T17:38:21.848Z,6.50
2023-02-23T17:40:50.192Z,4.95
2023-02-23T17:43:21.591Z,5.40
2023-02-23T17:45:51.378Z,6.45
2023-02-23T17:48:19.727Z,4.57
2023-02-23T17:50:48.276Z,4.88
2023-02-23T17:53:16.584Z,6.00
2023-02-23T17:55:46.703Z,8.60
2023-02-23T17:58:15.670Z,8.48
2023-02-23T18:00:43.987Z,4.85
2023-02-23T18:03:12.411Z,4.10
2023-02-23T18:05:40.740Z,3.95
2023-02-23T18:08:09.095Z,5.38
2023-02-23T18:10:37.817Z,3.95
2023-02-23T18:13:07.827Z,6.15
2023-02-23T18:15:36.183Z,5.93
2023-02-23T18:18:05.011Z,8.07
2023-02-23T18:20:33.296Z,8.73
2023-02-23T18:23:01.574Z,6.93
2023-02-23T18:25:30.941Z,7.07
2023-02-23T18:28:00.248Z,5.53
2023-02-23T18:30:30.246Z,6.95
2023-02-23T18:33:00.883Z,4.72
2023-02-23T18:35:29.469Z,3.72
2023-02-23T18:37:58.619Z,6.70
2023-02-23T18:40:27.487Z,5.68
2023-02-23T18:42:57.541Z,6.28
2023-02-23T18:45:26.171Z,7.93
2023-02-23T18:47:56.342Z,6.63
2023-02-23T18:50:26.518Z,4.65
2023-02-23T18:52:56.833Z,8.00
2023-02-23T18:55:25.758Z,5.03
2023-02-23T18:57:54.356Z,8.23
2023-02-23T19:00:23.741Z,5.93
2023-02-23T19:02:52.684Z,11.13
2023-02-23T19:05:23.075Z,7.78
2023-02-23T19:07:51.445Z,8.50
2023-02-23T19:10:20.143Z,9.10
2023-02-23T19:12:48.492Z,7.22
2023-02-23T19:15:17.184Z,8.18
2023-02-23T19:17:47.545Z,8.00
2023-02-23T19:20:17.803Z,8.73
2023-02-23T19:22:50.228Z,12.80
2023-02-23T19:25:19.986Z,9.18
2023-02-23T19:27:50.134Z,9.45
2023-02-23T19:30:20.068Z,10.40
2023-02-23T19:32:50.078Z,8.88
2023-02-23T19:35:19.926Z,8.85
2023-02-23T19:37:53.514Z,11.50
2023-02-23T19:40:29.209Z,11.27
2023-02-23T19:42:59.627Z,9.25
2023-02-23T19:45:29.317Z,8.90
2023-02-23T19:47:58.887Z,12.90
2023-02-23T19:50:29.028Z,11.40
2023-02-23T19:53:03.660Z,17.20
2023-02-23T19:55:33.403Z,15.75
2023-02-23T19:58:03.212Z,16.75
2023-02-23T20:00:33.401Z,18.23
2023-02-23T20:03:06.940Z,17.90
2023-02-23T20:05:42.771Z,17.60
2023-02-23T20:08:14.166Z,18.40
2023-02-23T20:10:44.660Z,22.48
2023-02-23T20:13:14.429Z,18.60
2023-02-23T20:15:44.205Z,19.42
2023-02-23T20:18:14.802Z,21.08
2023-02-23T20:20:44.754Z,19.92
2023-02-23T20:23:16.968Z,20.40
2023-02-23T20:25:46.593Z,20.65
2023-02-23T20:28:15.579Z,20.70
2023-02-23T20:30:49.732Z,21.02
2023-02-23T20:33:19.291Z,21.55
2023-02-23T20:35:49.636Z,22.17
2023-02-23T20:38:19.384Z,20.58
2023-02-23T20:40:51.125Z,20.60
2023-02-23T20:43:20.100Z,22.75
2023-02-23T20:45:50.155Z,23.77
2023-02-23T20:48:18.583Z,21.73
2023-02-23T20:50:48.269Z,21.77
2023-02-23T20:53:18.431Z,21.92
2023-02-23T20:55:48.607Z,23.30
2023-02-23T20:58:18.027Z,23.63
2023-02-23T21:00:47.645Z,22.10
2023-02-23T21:03:16.220Z,22.73
2023-02-23T21:05:44.827Z,27.55
2023-02-23T21:08:13.865Z,26.10
2023-02-23T21:10:43.936Z,27.00
2023-02-23T21:13:14.232Z,26.95
2023-02-23T21:15:45.514Z,26.48
2023-02-23T21:18:14.964Z,28.80
2023-02-23T21:20:43.524Z,27.63
2023-02-23T21:23:13.201Z,29.17
2023-02-23T21:25:42.778Z,25.83
2023-02-23T21:28:11.572Z,27.20
2023-02-23T21:30:41.320Z,27.02
2023-02-23T21:33:11.140Z,26.85
2023-02-23T21:35:41.125Z,27.33
2023-02-23T21:38:11.250Z,27.30
2023-02-23T21:40:42.758Z,27.20
2023-02-23T21:43:13.959Z,27.80
2023-02-23T21:45:47.169Z,27.92
2023-02-23T21:48:15.554Z,28.13
2023-02-23T21:50:43.924Z,29.15
2023-02-23T21:53:12.884Z,27.15
2023-02-23T21:55:41.393Z,26.88
2023-02-23T21:58:10.020Z,28.58
2023-02-23T22:00:39.465Z,28.33
2023-02-23T22:03:09.670Z,29.60
2023-02-23T22:05:37.978Z,28.40
2023-02-23T22:08:06.600Z,29.75
2023-02-23T22:10:34.850Z,29.50
2023-02-23T22:13:03.957Z,29.52
2023-02-23T22:15:33.531Z,28.98
2023-02-23T22:18:02.273Z,25.20
2023-02-23T22:20:32.335Z,27.75
2023-02-23T22:23:01.342Z,25.67
2023-02-23T22:25:29.729Z,25.17
2023-02-23T22:27:58.031Z,26.98
2023-02-23T22:30:28.455Z,25.00
2023-02-23T22:32:57.196Z,26.17
2023-02-23T22:35:25.578Z,22.30
2023-02-23T22:37:55.294Z,22.42
2023-02-23T22:40:24.674Z,22.73
2023-02-23T22:42:54.693Z,23.48
2023-02-23T22:45:23.255Z,24.17
2023-02-23T22:47:51.942Z,22.45
2023-02-23T22:50:20.338Z,22.60
2023-02-23T22:52:48.640Z,24.08
2023-02-23T22:55:19.415Z,23.95
2023-02-23T22:57:47.792Z,22.15
2023-02-23T23:00:20.015Z,22.83
2023-02-23T23:02:48.574Z,23.33
2023-02-23T23:05:17.586Z,22.75
2023-02-23T23:07:47.877Z,22.83
2023-02-23T23:10:18.769Z,23.35
2023-02-23T23:12:47.183Z,22.88
2023-02-23T23:15:19.457Z,21.30
2023-02-23T23:17:49.687Z,22.13
2023-02-23T23:20:25.717Z,21.60
2023-02-23T23:22:54.906Z,25.08
2023-02-23T23:25:24.964Z,21.20
2023-02-23T23:27:56.471Z,21.50
2023-02-23T23:30:29.293Z,19.70
2023-02-23T23:32:58.472Z,19.25
2023-02-23T23:35:26.969Z,17.65
2023-02-23T23:37:56.966Z,19.42
2023-02-23T23:40:26.664Z,17.60
2023-02-23T23:42:55.953Z,17.77
2023-02-23T23:45:25.591Z,17.75
2023-02-23T23:47:54.310Z,17.13
2023-02-23T23:50:27.099Z,16.02
2023-02-23T23:52:57.193Z,16.55
2023-02-23T23:55:31.632Z,15.25
2023-02-23T23:58:00.841Z,17.80
